Time;durP1;ratioP1;P1;durP2;ratioP2;P2;SDS_P1;SDS_P2;PMS_P1;PMS_P2;Temp;Humidity;BMP_temperature;BMP_pressure;BME280_temperature;BME280_humidity;BME280_pressure;Samples;Min_cycle;Max_cycle;Signal;HPM_P1;HPM_P2
2023/03/18 00:01:17;;;;;;;1.10;1.10;;;17.60;62.20;;;;;;5058629;28;43486;-76
2023/03/18 00:03:45;;;;;;;1.50;1.50;;;17.60;62.40;;;;;;5056895;28;43586;-78
2023/03/18 00:06:17;;;;;;;1.10;1.10;;;17.60;62.50;;;;;;5051552;28;45953;-76
2023/03/18 00:08:46;;;;;;;1.37;1.37;;;17.50;63.20;;;;;;5058368;28;43573;-76
2023/03/18 00:11:15;;;;;;;1.30;1.30;;;17.50;62.50;;;;;;5057168;28;44013;-78
2023/03/18 00:13:43;;;;;;;1.33;1.33;;;17.60;62.30;;;;;;5063294;28;43618;-78
2023/03/18 00:16:12;;;;;;;1.20;1.20;;;17.70;62.00;;;;;;5059335;28;44067;-76
2023/03/18 00:18:40;;;;;;;1.40;1.40;;;17.80;61.60;;;;;;5060141;28;43589;-78
2023/03/18 00:21:08;;;;;;;1.27;1.27;;;17.90;61.60;;;;;;5061247;28;43536;-77
2023/03/18 00:23:38;;;;;;;1.53;1.53;;;17.80;61.50;;;;;;5061698;28;43522;-75
2023/03/18 00:26:07;;;;;;;1.20;1.20;;;17.80;61.80;;;;;;5055899;28;44194;-77
2023/03/18 00:28:37;;;;;;;1.23;1.23;;;17.80;61.70;;;;;;5055827;28;44716;-73
2023/03/18 00:31:12;;;;;;;1.33;1.20;;;17.80;61.70;;;;;;5059471;28;43816;-78
2023/03/18 00:33:42;;;;;;;1.40;1.40;;;17.80;61.80;;;;;;5062764;28;43554;-76
2023/03/18 00:36:12;;;;;;;1.23;1.23;;;17.70;61.90;;;;;;5055105;28;43851;-78
2023/03/18 00:38:42;;;;;;;1.13;1.13;;;17.70;62.10;;;;;;5058406;28;43918;-75
2023/03/18 00:41:14;;;;;;;1.10;1.10;;;17.60;62.20;;;;;;5062453;28;43463;-76
2023/03/18 00:43:51;;;;;;;1.20;1.20;;;17.60;62.10;;;;;;5061377;28;43518;-77
2023/03/18 00:46:21;;;;;;;1.10;1.10;;;17.70;62.10;;;;;;5055403;28;43611;-77
2023/03/18 00:48:49;;;;;;;1.30;1.30;;;17.60;62.10;;;;;;5059797;28;43513;-77
2023/03/18 00:51:17;;;;;;;1.20;1.20;;;17.60;62.20;;;;;;5059847;28;43573;-77
2023/03/18 00:53:48;;;;;;;1.17;1.17;;;17.60;62.40;;;;;;5062053;28;43451;-79
2023/03/18 00:56:20;;;;;;;1.30;1.30;;;17.50;62.40;;;;;;5053872;28;43598;-79
2023/03/18 00:58:49;;;;;;;1.30;1.30;;;17.60;62.30;;;;;;5059140;28;44821;-76
2023/03/18 01:01:17;;;;;;;1.50;1.50;;;17.70;62.00;;;;;;5060463;28;43454;-79
2023/03/18 01:03:46;;;;;;;1.10;1.10;;;17.80;61.80;;;;;;5053383;28;43840;-77
2023/03/18 01:06:17;;;;;;;1.17;1.17;;;17.80;61.70;;;;;;5055260;28;45493;-77
2023/03/18 01:08:48;;;;;;;1.37;1.37;;;17.80;61.70;;;;;;5056830;28;44823;-75
2023/03/18 01:11:16;;;;;;;1.17;1.17;;;17.70;61.80;;;;;;5055415;28;43635;-77
2023/03/18 01:13:44;;;;;;;1.20;1.20;;;17.80;61.90;;;;;;5060368;28;43987;-77
2023/03/18 01:16:13;;;;;;;1.20;1.20;;;17.80;61.90;;;;;;5071175;27;45824;-76
2023/03/18 01:18:41;;;;;;;1.00;1.00;;;17.70;61.80;;;;;;5072475;27;44988;-76
2023/03/18 01:21:10;;;;;;;1.07;1.07;;;17.70;62.00;;;;;;5059403;28;43469;-74
2023/03/18 01:23:47;;;;;;;1.20;1.20;;;17.70;62.10;;;;;;5057105;28;43521;-77
2023/03/18 01:26:15;;;;;;;1.13;1.13;;;17.60;62.20;;;;;;5052640;28;44058;-77
2023/03/18 01:28:46;;;;;;;1.30;1.30;;;17.60;62.20;;;;;;5053064;28;44631;-76
2023/03/18 01:31:14;;;;;;;1.13;1.13;;;17.60;62.10;;;;;;5073721;27;43603;-73
2023/03/18 01:33:43;;;;;;;1.00;1.00;;;17.60;62.20;;;;;;5061512;28;43939;-76
2023/03/18 01:36:12;;;;;;;1.00;1.00;;;17.60;62.20;;;;;;5052437;28;46052;-77
2023/03/18 01:38:41;;;;;;;1.20;1.20;;;17.60;62.30;;;;;;5061218;28;44844;-76
2023/03/18 01:41:15;;;;;;;1.20;1.20;;;17.60;62.40;;;;;;5050609;28;43436;-76
2023/03/18 01:43:43;;;;;;;1.10;1.10;;;17.60;62.30;;;;;;5054415;28;43478;-78
2023/03/18 01:46:40;;;;;;;1.20;1.20;;;17.70;62.10;;;;;;5060313;28;45587;-77
2023/03/18 01:49:11;;;;;;;1.13;1.13;;;17.80;61.70;;;;;;5024886;28;44057;-74
2023/03/18 01:51:40;;;;;;;1.13;1.13;;;17.80;61.60;;;;;;5056345;28;43482;-77
2023/03/18 01:54:09;;;;;;;1.20;1.20;;;17.80;62.30;;;;;;5058154;28;43534;-76
2023/03/18 01:56:39;;;;;;;1.00;1.00;;;17.80;61.80;;;;;;5061622;28;43910;-76
2023/03/18 01:59:07;;;;;;;1.20;1.20;;;17.80;61.90;;;;;;5060569;28;44007;-78
2023/03/18 02:01:38;;;;;;;1.13;1.13;;;17.80;61.80;;;;;;5054588;28;43457;-73
2023/03/18 02:04:07;;;;;;;1.20;1.20;;;17.80;61.90;;;;;;5056236;28;43989;-73
2023/03/18 02:06:38;;;;;;;1.20;1.20;;;17.70;61.90;;;;;;5059510;28;44028;-71
2023/03/18 02:09:06;;;;;;;1.17;1.17;;;17.70;62.00;;;;;;5060796;28;45282;-72
2023/03/18 02:11:38;;;;;;;1.20;1.20;;;17.70;62.20;;;;;;5061855;28;44064;-73
2023/03/18 02:14:06;;;;;;;1.10;1.10;;;17.60;62.20;;;;;;5060927;28;43479;-72
2023/03/18 02:16:38;;;;;;;1.00;1.00;;;17.70;62.10;;;;;;5052552;28;45997;-72
2023/03/18 02:19:09;;;;;;;1.17;1.17;;;17.70;62.10;;;;;;5057362;28;45004;-72
2023/03/18 02:21:43;;;;;;;1.20;1.20;;;17.60;62.10;;;;;;5058546;28;43457;-72
2023/03/18 02:24:18;;;;;;;1.20;1.20;;;17.60;62.20;;;;;;5058288;28;43506;-73
2023/03/18 02:26:53;;;;;;;1.27;1.27;;;17.60;62.30;;;;;;5054152;28;44120;-72
2023/03/18 02:29:31;;;;;;;1.10;1.10;;;17.60;62.40;;;;;;5051596;28;43577;-71
2023/03/18 02:32:04;;;;;;;1.10;1.10;;;17.70;62.30;;;;;;5060843;28;43446;-72
2023/03/18 02:34:33;;;;;;;1.27;1.27;;;17.80;61.90;;;;;;5048516;28;43529;-73
2023/03/18 02:37:01;;;;;;;1.30;1.30;;;17.80;61.60;;;;;;5055605;28;44750;-73
2023/03/18 02:39:30;;;;;;;1.30;1.30;;;17.80;61.60;;;;;;5048669;28;44020;-72
2023/03/18 02:41:59;;;;;;;1.10;1.10;;;17.80;61.70;;;;;;5060038;28;43482;-72
2023/03/18 02:44:29;;;;;;;1.10;1.10;;;17.80;62.00;;;;;;5050867;28;44096;-73
2023/03/18 02:47:26;;;;;;;1.23;1.23;;;17.80;61.80;;;;;;5053407;28;43770;-72
2023/03/18 02:49:54;;;;;;;1.20;1.20;;;17.80;61.80;;;;;;5058196;28;43499;-72
2023/03/18 02:52:24;;;;;;;1.10;1.10;;;17.70;61.80;;;;;;5050947;28;44083;-72
2023/03/18 02:54:57;;;;;;;1.10;1.10;;;17.70;62.00;;;;;;5052930;28;43394;-73
2023/03/18 02:57:26;;;;;;;1.17;1.17;;;17.60;62.10;;;;;;5059503;28;45001;-72
2023/03/18 02:59:57;;;;;;;1.00;1.00;;;17.60;62.10;;;;;;5057040;28;44946;-72
2023/03/18 03:02:29;;;;;;;1.37;1.37;;;17.60;62.00;;;;;;5056454;28;43508;-72
2023/03/18 03:04:58;;;;;;;0.80;0.80;;;17.70;62.10;;;;;;5055697;28;43541;-72
2023/03/18 03:07:26;;;;;;;1.10;1.10;;;17.60;62.10;;;;;;5050803;28;45363;-72
2023/03/18 03:09:56;;;;;;;1.20;1.20;;;17.60;62.20;;;;;;5050037;28;44125;-71
2023/03/18 03:12:24;;;;;;;1.30;1.30;;;17.60;62.40;;;;;;5061456;28;43420;-70
2023/03/18 03:14:57;;;;;;;1.00;1.00;;;17.60;62.40;;;;;;5054537;28;43488;-71
2023/03/18 03:17:27;;;;;;;1.17;1.17;;;17.70;62.20;;;;;;5056164;28;44071;-71
2023/03/18 03:19:56;;;;;;;1.10;1.10;;;17.70;61.80;;;;;;5053081;28;43482;-72
2023/03/18 03:22:24;;;;;;;1.10;1.10;;;17.80;61.80;;;;;;5057176;28;43428;-72
2023/03/18 03:24:52;;;;;;;0.90;0.90;;;17.80;61.80;;;;;;5055967;28;43454;-72
2023/03/18 03:27:20;;;;;;;1.10;1.10;;;17.70;61.90;;;;;;5062033;28;43626;-72
2023/03/18 03:29:48;;;;;;;1.00;1.00;;;17.70;62.00;;;;;;5048491;28;43585;-72
2023/03/18 03:32:20;;;;;;;1.10;1.10;;;17.60;62.10;;;;;;5058558;28;43580;-72
2023/03/18 03:34:49;;;;;;;1.10;1.10;;;17.60;62.20;;;;;;5057578;28;43677;-72
2023/03/18 03:37:17;;;;;;;1.10;1.10;;;17.60;62.30;;;;;;5059584;28;45902;-72
2023/03/18 03:39:47;;;;;;;1.30;1.30;;;17.50;62.40;;;;;;5052523;28;44984;-72
2023/03/18 03:42:15;;;;;;;1.23;1.23;;;17.50;62.40;;;;;;5053318;28;43444;-73
2023/03/18 03:44:43;;;;;;;1.10;1.10;;;17.60;62.50;;;;;;5060683;28;43486;-72
2023/03/18 03:47:11;;;;;;;1.10;1.10;;;17.70;62.20;;;;;;5056729;28;43909;-72
2023/03/18 03:49:41;;;;;;;1.17;1.17;;;17.80;61.80;;;;;;5058756;28;44402;-71
2023/03/18 03:52:11;;;;;;;1.23;1.23;;;18.00;61.50;;;;;;5051860;28;44160;-72
2023/03/18 03:54:40;;;;;;;1.00;1.00;;;18.10;61.00;;;;;;5060918;28;43686;-72
2023/03/18 03:57:09;;;;;;;1.07;1.07;;;18.20;60.60;;;;;;5062685;28;45825;-74
2023/03/18 03:59:37;;;;;;;0.90;0.90;;;18.40;60.30;;;;;;5058211;28;44628;-72
2023/03/18 04:02:17;;;;;;;1.20;1.20;;;18.50;59.80;;;;;;5062162;28;43410;-72
2023/03/18 04:04:47;;;;;;;1.00;1.00;;;18.60;59.50;;;;;;5057035;28;44079;-73
2023/03/18 04:07:24;;;;;;;1.10;1.10;;;18.70;59.20;;;;;;5055955;28;44082;-72
2023/03/18 04:09:52;;;;;;;1.10;1.10;;;18.90;59.00;;;;;;5055347;28;44901;-72
2023/03/18 04:12:20;;;;;;;1.27;1.27;;;18.90;59.00;;;;;;5059394;28;43478;-72
2023/03/18 04:14:57;;;;;;;0.90;0.90;;;18.80;59.00;;;;;;5056373;28;44258;-72
2023/03/18 04:17:24;;;;;;;1.00;1.00;;;18.70;59.40;;;;;;5057161;28;43874;-72
2023/03/18 04:19:54;;;;;;;1.07;1.07;;;18.50;59.60;;;;;;5057716;28;45062;-72
2023/03/18 04:22:28;;;;;;;0.90;0.90;;;18.40;60.10;;;;;;5054940;28;43399;-72
2023/03/18 04:24:57;;;;;;;1.10;1.10;;;18.30;60.40;;;;;;5059504;28;43454;-73
2023/03/18 04:27:25;;;;;;;0.87;0.87;;;18.20;60.60;;;;;;5056486;28;43898;-72
2023/03/18 04:29:53;;;;;;;1.00;1.00;;;18.10;60.70;;;;;;5060067;28;44998;-72
2023/03/18 04:32:23;;;;;;;1.00;1.00;;;18.10;60.90;;;;;;5060454;28;44124;-73
2023/03/18 04:34:51;;;;;;;1.00;1.00;;;18.00;61.10;;;;;;5054600;28;44385;-72
2023/03/18 04:37:21;;;;;;;1.10;1.10;;;17.90;61.50;;;;;;5061529;28;45366;-72
2023/03/18 04:39:54;;;;;;;0.97;0.97;;;17.90;61.60;;;;;;5051886;28;43500;-72
2023/03/18 04:42:23;;;;;;;0.90;0.90;;;17.90;61.60;;;;;;5061429;28;43387;-71
2023/03/18 04:44:51;;;;;;;1.10;1.10;;;17.80;61.60;;;;;;5057192;28;43581;-72
2023/03/18 04:47:19;;;;;;;1.00;1.00;;;17.80;61.70;;;;;;5060300;28;43852;-73
2023/03/18 04:49:50;;;;;;;1.07;1.07;;;17.70;61.80;;;;;;5056196;28;43433;-71
2023/03/18 04:52:19;;;;;;;1.20;1.20;;;17.70;61.90;;;;;;5061197;28;43439;-73
2023/03/18 04:54:48;;;;;;;1.20;1.20;;;17.80;61.90;;;;;;5056937;28;43585;-71
2023/03/18 04:57:17;;;;;;;1.00;1.00;;;17.90;61.70;;;;;;5057183;28;46137;-72
2023/03/18 04:59:50;;;;;;;1.10;1.10;;;18.00;61.40;;;;;;5056334;28;44529;-72
2023/03/18 05:02:19;;;;;;;1.00;1.00;;;18.00;61.30;;;;;;5057169;28;43581;-72
2023/03/18 05:04:47;;;;;;;1.17;1.17;;;18.00;61.30;;;;;;5075034;27;43459;-73
2023/03/18 05:07:15;;;;;;;1.20;1.20;;;18.00;61.40;;;;;;5057287;28;45527;-72
2023/03/18 05:09:54;;;;;;;1.00;1.00;;;17.90;61.40;;;;;;5061389;28;43996;-71
2023/03/18 05:12:24;;;;;;;1.10;1.10;;;17.90;61.40;;;;;;5055466;28;43489;-72
2023/03/18 05:14:52;;;;;;;1.00;1.00;;;17.90;61.50;;;;;;5057485;28;43910;-73
2023/03/18 05:17:20;;;;;;;0.90;0.90;;;17.80;61.50;;;;;;5052789;28;45584;-72
2023/03/18 05:19:56;;;;;;;1.00;1.00;;;17.80;61.70;;;;;;5055652;28;43667;-72
2023/03/18 05:22:24;;;;;;;1.23;1.23;;;17.80;61.80;;;;;;5057822;28;43411;-71
2023/03/18 05:25:00;;;;;;;2.20;1.20;;;17.80;61.80;;;;;;5057842;28;43546;-71
2023/03/18 05:27:29;;;;;;;0.90;0.90;;;17.80;61.90;;;;;;5056746;28;45949;-72
2023/03/18 05:30:02;;;;;;;1.10;1.10;;;17.80;61.90;;;;;;5055222;28;43726;-72
2023/03/18 05:32:39;;;;;;;1.70;1.00;;;17.70;61.90;;;;;;5059627;28;43344;-72
2023/03/18 05:35:09;;;;;;;1.13;1.03;;;17.70;62.00;;;;;;5055668;28;44487;-71
2023/03/18 05:37:45;;;;;;;1.80;0.97;;;17.70;62.00;;;;;;5056230;28;44865;-73
2023/03/18 05:40:16;;;;;;;0.93;0.93;;;17.80;61.80;;;;;;5059978;28;44499;-72
2023/03/18 05:42:56;;;;;;;1.10;1.10;;;17.90;61.60;;;;;;5050828;28;44134;-71
2023/03/18 05:45:35;;;;;;;0.93;0.93;;;17.90;61.50;;;;;;5055946;28;43818;-74
2023/03/18 05:48:09;;;;;;;1.00;1.00;;;17.90;61.50;;;;;;5057643;28;45764;-71
2023/03/18 05:50:45;;;;;;;1.10;1.10;;;17.80;61.70;;;;;;5050177;28;44799;-73
2023/03/18 05:53:18;;;;;;;0.80;0.80;;;17.80;61.60;;;;;;5056323;28;43528;-71
2023/03/18 05:55:50;;;;;;;0.97;0.97;;;17.80;61.70;;;;;;5057690;28;43514;-71
2023/03/18 05:58:19;;;;;;;0.90;0.90;;;17.80;61.80;;;;;;5057572;28;45642;-72
2023/03/18 06:00:53;;;;;;;0.90;0.90;;;17.80;61.90;;;;;;5060347;28;43457;-72
2023/03/18 06:03:23;;;;;;;1.03;1.03;;;17.70;61.90;;;;;;5060855;28;43447;-72
2023/03/18 06:05:52;;;;;;;1.00;1.00;;;17.70;62.00;;;;;;5071425;28;43538;-71
2023/03/18 06:08:21;;;;;;;1.07;1.00;;;17.70;61.80;;;;;;5058074;28;45893;-71
2023/03/18 06:10:50;;;;;;;0.80;0.80;;;17.70;61.70;;;;;;5056197;28;45031;-72
2023/03/18 06:13:18;;;;;;;1.40;1.40;;;17.70;61.90;;;;;;5060873;28;43387;-73
2023/03/18 06:15:46;;;;;;;0.80;0.80;;;17.70;62.00;;;;;;5051141;28;43557;-72
2023/03/18 06:18:15;;;;;;;1.20;1.20;;;17.70;62.10;;;;;;5058327;28;43599;-72
2023/03/18 06:20:43;;;;;;;1.00;1.00;;;17.60;61.90;;;;;;5048955;28;43448;-72
2023/03/18 06:23:12;;;;;;;1.10;1.10;;;17.70;61.90;;;;;;5051183;28;43901;-73
2023/03/18 06:25:40;;;;;;;1.00;1.00;;;17.80;61.60;;;;;;5062094;28;43510;-71
2023/03/18 06:28:10;;;;;;;0.90;0.90;;;17.90;61.30;;;;;;5060160;28;45843;-72
2023/03/18 06:30:39;;;;;;;0.97;0.97;;;17.90;61.20;;;;;;5062444;28;43594;-72
2023/03/18 06:33:09;;;;;;;0.80;0.80;;;17.90;61.20;;;;;;5057074;28;44582;-72
2023/03/18 06:35:38;;;;;;;1.00;1.00;;;17.90;61.50;;;;;;5057860;28;43983;-72
2023/03/18 06:38:07;;;;;;;1.00;1.00;;;17.90;61.40;;;;;;5056485;28;45746;-71
2023/03/18 06:40:37;;;;;;;1.03;1.03;;;17.90;61.50;;;;;;5053116;28;43480;-71
2023/03/18 06:43:07;;;;;;;0.90;0.90;;;17.80;61.50;;;;;;5059742;28;43400;-72
2023/03/18 06:45:39;;;;;;;1.03;1.03;;;17.80;61.60;;;;;;5055110;28;43827;-71
2023/03/18 06:48:09;;;;;;;0.90;0.90;;;17.70;61.70;;;;;;5054247;28;43960;-71
2023/03/18 06:50:41;;;;;;;1.00;1.00;;;17.70;61.80;;;;;;5061211;28;43542;-71
2023/03/18 06:53:16;;;;;;;1.03;1.03;;;17.70;61.70;;;;;;5050481;28;43464;-72
2023/03/18 06:55:46;;;;;;;1.00;1.00;;;17.70;61.70;;;;;;5058447;28;43944;-71
2023/03/18 06:58:14;;;;;;;0.80;0.80;;;17.70;61.70;;;;;;5055262;28;43905;-71
2023/03/18 07:00:51;;;;;;;0.97;0.90;;;17.70;61.80;;;;;;5053124;28;43466;-71
2023/03/18 07:03:24;;;;;;;0.90;0.90;;;17.70;61.90;;;;;;5053527;28;43473;-72
2023/03/18 07:05:53;;;;;;;0.90;0.90;;;17.70;61.90;;;;;;5050712;28;43463;-73
2023/03/18 07:08:21;;;;;;;0.90;0.90;;;17.70;61.70;;;;;;5056825;28;43923;-72
2023/03/18 07:10:51;;;;;;;0.90;0.90;;;17.70;61.70;;;;;;5053108;28;43900;-72
2023/03/18 07:13:20;;;;;;;0.80;0.80;;;17.70;61.70;;;;;;5054840;28;43483;-72
2023/03/18 07:15:48;;;;;;;0.93;0.93;;;17.70;61.80;;;;;;5057597;28;43500;-72
2023/03/18 07:18:17;;;;;;;1.10;1.00;;;17.70;61.90;;;;;;5052363;28;43581;-72
2023/03/18 07:20:47;;;;;;;0.97;0.97;;;17.70;62.00;;;;;;5049357;28;43475;-71
2023/03/18 07:23:15;;;;;;;0.80;0.80;;;17.70;61.90;;;;;;5053134;28;43482;-72
2023/03/18 07:25:43;;;;;;;0.90;0.90;;;17.80;61.60;;;;;;5053596;28;44138;-73
2023/03/18 07:28:11;;;;;;;1.80;0.90;;;17.90;61.20;;;;;;5052839;28;46845;-71
2023/03/18 07:30:39;;;;;;;0.80;0.80;;;18.00;61.10;;;;;;5050857;28;44639;-73
2023/03/18 07:33:07;;;;;;;0.90;0.90;;;18.00;61.00;;;;;;5050588;28;43566;-71
2023/03/18 07:35:40;;;;;;;1.03;1.03;;;17.90;61.10;;;;;;5062120;28;43473;-71
2023/03/18 07:38:08;;;;;;;1.00;1.00;;;17.90;61.10;;;;;;5055699;28;43935;-72
2023/03/18 07:40:36;;;;;;;0.80;0.80;;;17.90;61.20;;;;;;5053038;28;43884;-71
2023/03/18 07:43:04;;;;;;;0.87;0.87;;;17.90;61.20;;;;;;5051739;28;43515;-72
2023/03/18 07:45:33;;;;;;;0.90;0.90;;;17.80;61.30;;;;;;5059233;28;43830;-72
2023/03/18 07:48:01;;;;;;;0.90;0.90;;;17.80;61.50;;;;;;5058352;28;44200;-72
2023/03/18 07:50:29;;;;;;;0.90;0.90;;;17.70;61.70;;;;;;5058048;28;44723;-72
2023/03/18 07:52:58;;;;;;;0.80;0.80;;;17.80;61.70;;;;;;5056461;28;43927;-72
2023/03/18 07:55:26;;;;;;;0.97;0.97;;;17.70;61.50;;;;;;5050150;28;43629;-72
2023/03/18 07:57:54;;;;;;;1.10;1.10;;;17.70;61.60;;;;;;5055417;28;44052;-73
2023/03/18 08:00:23;;;;;;;1.00;1.00;;;17.70;61.70;;;;;;5057463;28;44755;-71
2023/03/18 08:02:51;;;;;;;0.90;0.90;;;17.70;61.80;;;;;;5059795;28;43505;-72
2023/03/18 08:05:20;;;;;;;0.90;0.90;;;17.70;62.00;;;;;;5060149;28;43427;-72
2023/03/18 08:07:48;;;;;;;1.00;1.00;;;17.60;61.70;;;;;;5054795;28;43945;-71
2023/03/18 08:10:18;;;;;;;0.80;0.80;;;17.70;61.80;;;;;;5060518;28;44873;-72
2023/03/18 08:12:46;;;;;;;0.90;0.90;;;17.70;61.70;;;;;;5052930;28;43501;-72
2023/03/18 08:15:21;;;;;;;0.80;0.80;;;17.70;61.90;;;;;;5053857;28;43482;-72
2023/03/18 08:17:49;;;;;;;0.90;0.90;;;17.60;61.90;;;;;;5054682;28;43600;-72
2023/03/18 08:20:18;;;;;;;0.90;0.90;;;17.60;62.00;;;;;;5054148;28;43921;-73
2023/03/18 08:22:47;;;;;;;1.00;1.00;;;17.60;61.90;;;;;;5049465;28;43466;-71
2023/03/18 08:25:15;;;;;;;0.90;0.90;;;17.70;61.50;;;;;;5050580;28;43622;-73
2023/03/18 08:27:47;;;;;;;0.70;0.70;;;17.90;61.30;;;;;;5055603;28;46033;-72
2023/03/18 08:30:19;;;;;;;0.73;0.73;;;17.90;61.00;;;;;;5068832;27;44673;-72
2023/03/18 08:32:47;;;;;;;0.73;0.73;;;17.90;61.00;;;;;;5052533;28;43465;-73
2023/03/18 08:35:15;;;;;;;0.80;0.80;;;17.90;61.30;;;;;;5053264;28;44419;-72
2023/03/18 08:37:44;;;;;;;0.90;0.90;;;17.90;61.40;;;;;;5053042;28;43725;-72
2023/03/18 08:40:13;;;;;;;1.50;1.00;;;17.90;61.30;;;;;;5054704;28;43435;-72
2023/03/18 08:42:41;;;;;;;0.90;0.90;;;17.80;61.40;;;;;;5053974;28;43489;-72
2023/03/18 08:45:11;;;;;;;0.90;0.90;;;17.80;61.40;;;;;;5055952;28;44035;-73
2023/03/18 08:47:40;;;;;;;1.13;1.00;;;17.80;61.60;;;;;;5058912;28;44631;-72
2023/03/18 08:50:12;;;;;;;1.00;1.00;;;17.70;61.70;;;;;;5064499;28;43490;-71
2023/03/18 08:52:40;;;;;;;0.90;0.90;;;17.70;61.70;;;;;;5059773;28;44146;-71
2023/03/18 08:55:08;;;;;;;0.90;0.90;;;17.70;61.70;;;;;;5059197;28;44242;-72
2023/03/18 08:57:37;;;;;;;0.90;0.90;;;17.70;61.70;;;;;;5058977;28;43624;-71
2023/03/18 09:00:06;;;;;;;0.90;0.90;;;17.70;61.80;;;;;;5061530;28;43840;-72
2023/03/18 09:02:36;;;;;;;0.90;0.90;;;17.70;61.90;;;;;;5057533;28;44148;-72
2023/03/18 09:05:05;;;;;;;1.00;1.00;;;17.60;62.00;;;;;;5056245;28;43505;-72
2023/03/18 09:07:33;;;;;;;1.07;0.93;;;17.70;62.00;;;;;;5060915;28;43856;-72
2023/03/18 09:10:01;;;;;;;0.83;0.83;;;17.70;62.00;;;;;;5065046;27;44484;-72
2023/03/18 09:12:29;;;;;;;0.80;0.80;;;17.70;62.00;;;;;;5058324;28;43395;-71
2023/03/18 09:14:57;;;;;;;1.10;1.10;;;17.70;62.10;;;;;;5056856;28;43796;-72
2023/03/18 09:17:25;;;;;;;0.90;0.90;;;17.70;62.20;;;;;;5055711;28;45854;-71
2023/03/18 09:20:16;;;;;;;1.07;1.07;;;17.60;62.30;;;;;;5061404;28;43442;-73
2023/03/18 09:22:44;;;;;;;1.00;1.00;;;17.70;62.40;;;;;;5053443;28;43430;-71
2023/03/18 09:25:12;;;;;;;1.03;1.03;;;17.80;62.10;;;;;;5059300;28;43469;-73
2023/03/18 09:27:41;;;;;;;0.80;0.80;;;17.90;61.70;;;;;;5053714;28;43912;-74
2023/03/18 09:30:10;;;;;;;1.80;1.07;;;17.90;61.50;;;;;;5054776;28;44048;-71
2023/03/18 09:32:38;;;;;;;0.90;0.90;;;17.90;61.40;;;;;;5056449;28;43430;-72
2023/03/18 09:35:08;;;;;;;1.20;1.10;;;17.90;61.60;;;;;;5058072;28;43364;-72
2023/03/18 09:37:41;;;;;;;3.53;1.00;;;17.90;61.80;;;;;;5062502;28;43649;-72
2023/03/18 09:40:12;;;;;;;1.40;1.30;;;17.90;61.70;;;;;;5065451;28;43458;-73
2023/03/18 09:42:50;;;;;;;1.17;1.07;;;17.90;61.80;;;;;;5055850;28;43524;-72
2023/03/18 09:45:21;;;;;;;1.00;1.00;;;17.80;61.80;;;;;;5061417;28;43912;-72
2023/03/18 09:48:06;;;;;;;1.00;1.00;;;17.80;62.00;;;;;;5057498;28;43857;-73
2023/03/18 09:50:39;;;;;;;1.00;1.00;;;17.70;62.10;;;;;;5062857;28;44058;-71
2023/03/18 09:53:15;;;;;;;1.33;0.90;;;17.80;62.20;;;;;;5062934;28;44095;-71
2023/03/18 09:55:45;;;;;;;0.80;0.80;;;17.70;62.00;;;;;;5060917;28;43439;-72
2023/03/18 09:58:19;;;;;;;0.80;0.80;;;17.70;62.00;;;;;;5057055;28;43996;-71
2023/03/18 10:00:46;;;;;;;1.00;1.00;;;17.70;62.10;;;;;;5053387;28;43709;-72
2023/03/18 10:03:16;;;;;;;0.90;0.90;;;17.70;62.30;;;;;;5053505;28;43483;-73
2023/03/18 10:05:47;;;;;;;1.27;1.10;;;17.70;62.40;;;;;;5053462;28;43572;-72
2023/03/18 10:08:18;;;;;;;2.30;1.07;;;17.70;62.40;;;;;;5054626;28;46022;-72
2023/03/18 10:10:46;;;;;;;1.00;1.00;;;17.80;62.20;;;;;;5059069;28;43402;-72
2023/03/18 10:13:17;;;;;;;1.00;1.00;;;17.90;61.90;;;;;;5058840;28;43441;-72
2023/03/18 10:15:47;;;;;;;2.00;1.27;;;17.90;61.80;;;;;;5053419;28;43482;-71
2023/03/18 10:18:18;;;;;;;1.10;1.10;;;17.90;61.90;;;;;;5054386;28;45381;-71
2023/03/18 10:20:52;;;;;;;1.23;1.23;;;17.80;62.00;;;;;;5050263;28;43315;-72
2023/03/18 10:23:27;;;;;;;1.10;1.10;;;17.90;62.10;;;;;;5053470;28;43467;-73
2023/03/18 10:25:57;;;;;;;0.93;0.93;;;17.90;62.10;;;;;;5057342;28;43563;-71
2023/03/18 10:28:41;;;;;;;1.10;1.10;;;17.80;62.20;;;;;;5057847;28;43854;-71
2023/03/18 10:31:19;;;;;;;1.00;1.00;;;17.80;62.20;;;;;;5056462;28;43383;-72
2023/03/18 10:33:50;;;;;;;1.23;1.00;;;17.80;62.50;;;;;;5053070;28;43403;-72
2023/03/18 10:36:19;;;;;;;1.30;1.20;;;17.70;62.50;;;;;;5052886;28;44102;-73
2023/03/18 10:38:49;;;;;;;2.67;1.10;;;17.70;62.40;;;;;;5053278;28;45757;-72
2023/03/18 10:41:20;;;;;;;1.10;1.10;;;17.80;62.50;;;;;;5058510;28;43469;-71
2023/03/18 10:43:52;;;;;;;1.20;1.20;;;17.80;62.60;;;;;;5050860;28;43392;-74
2023/03/18 10:46:20;;;;;;;1.23;1.23;;;17.70;62.70;;;;;;5054348;28;43550;-72
2023/03/18 10:48:50;;;;;;;4.97;1.53;;;17.70;62.90;;;;;;5055155;28;45834;-73
2023/03/18 10:51:20;;;;;;;1.40;1.40;;;17.70;61.80;;;;;;5056865;28;43434;-72
2023/03/18 10:53:54;;;;;;;3.17;1.37;;;17.80;62.20;;;;;;5058225;28;43494;-72
2023/03/18 10:56:22;;;;;;;2.20;1.30;;;17.90;62.20;;;;;;5056022;28;44059;-72
2023/03/18 10:58:51;;;;;;;1.20;1.20;;;17.90;61.90;;;;;;5056749;28;45726;-73
2023/03/18 11:01:19;;;;;;;1.67;1.20;;;17.90;61.90;;;;;;5058283;28;43777;-72
2023/03/18 11:03:51;;;;;;;2.07;1.30;;;17.90;62.70;;;;;;5052195;28;43470;-72
2023/03/18 11:06:21;;;;;;;1.20;1.20;;;17.90;62.20;;;;;;5055619;28;43446;-72
2023/03/18 11:08:50;;;;;;;1.10;1.10;;;17.90;62.20;;;;;;5055785;28;43894;-72
2023/03/18 11:11:25;;;;;;;1.30;1.20;;;17.90;62.20;;;;;;5050390;28;45162;-71
2023/03/18 11:13:54;;;;;;;1.30;1.20;;;17.90;62.30;;;;;;5057344;28;43379;-73
2023/03/18 11:16:29;;;;;;;2.00;1.33;;;17.80;62.40;;;;;;5058807;28;43950;-71
2023/03/18 11:18:58;;;;;;;1.50;1.40;;;17.80;62.60;;;;;;5054687;28;45969;-72
2023/03/18 11:21:27;;;;;;;1.50;1.40;;;17.80;62.90;;;;;;5057954;28;43418;-71
2023/03/18 11:24:19;;;;;;;1.40;1.30;;;17.80;62.80;;;;;;5062567;28;43444;-71
2023/03/18 11:26:49;;;;;;;1.83;1.30;;;17.80;62.70;;;;;;5049373;28;43574;-73
2023/03/18 11:29:19;;;;;;;1.20;1.20;;;17.80;62.90;;;;;;5057460;28;44600;-71
2023/03/18 11:31:53;;;;;;;3.23;1.23;;;17.80;63.00;;;;;;5051282;28;44727;-72
2023/03/18 11:34:21;;;;;;;1.37;1.30;;;17.70;63.00;;;;;;5053911;28;43410;-72
2023/03/18 11:36:54;;;;;;;1.60;1.40;;;17.70;63.30;;;;;;5059467;28;43460;-71
2023/03/18 11:39:25;;;;;;;4.93;1.40;;;17.80;63.50;;;;;;5055848;28;44084;-71
2023/03/18 11:41:53;;;;;;;4.37;1.60;;;17.90;63.20;;;;;;5056214;28;45007;-71
2023/03/18 11:44:29;;;;;;;4.60;1.57;;;18.00;63.00;;;;;;5056464;28;43406;-71
2023/03/18 11:47:06;;;;;;;4.83;1.47;;;17.90;62.90;;;;;;5057458;28;43478;-72
2023/03/18 11:49:34;;;;;;;34.40;3.53;;;17.90;62.90;;;;;;5056774;28;43615;-72
2023/03/18 11:52:07;;;;;;;33.10;4.13;;;17.90;63.40;;;;;;5052037;28;44382;-72
2023/03/18 11:54:43;;;;;;;34.67;4.10;;;17.90;63.70;;;;;;5062176;28;43771;-72
2023/03/18 11:57:13;;;;;;;9.93;2.60;;;17.90;63.50;;;;;;5048210;28;43469;-72
2023/03/18 12:00:00;;;;;;;14.07;2.90;;;17.90;63.60;;;;;;5056804;28;44074;-71
2023/03/18 12:03:02;;;;;;;10.43;3.00;;;17.90;63.80;;;;;;5051375;28;44076;-71
2023/03/18 12:05:42;;;;;;;22.43;3.00;;;17.80;63.90;;;;;;5020102;28;43500;-72
2023/03/18 12:08:15;;;;;;;11.90;2.70;;;17.80;64.20;;;;;;5052343;28;43936;-71
2023/03/18 12:10:48;;;;;;;18.90;3.03;;;17.80;63.90;;;;;;5057744;28;43877;-71
2023/03/18 12:13:34;;;;;;;7.93;2.83;;;17.80;63.90;;;;;;5058213;28;43394;-72
2023/03/18 12:16:08;;;;;;;8.63;2.70;;;17.80;64.10;;;;;;5058187;28;43931;-73
2023/03/18 12:18:48;;;;;;;8.43;2.27;;;17.80;64.30;;;;;;5056681;28;43594;-71
2023/03/18 12:21:28;;;;;;;8.33;2.70;;;17.80;64.40;;;;;;5059515;28;43899;-71
2023/03/18 12:24:02;;;;;;;11.07;3.20;;;17.80;64.50;;;;;;5061404;28;43394;-72
2023/03/18 12:26:35;;;;;;;11.63;2.77;;;17.90;64.20;;;;;;5058838;28;43521;-72
2023/03/18 12:29:22;;;;;;;8.17;2.57;;;18.00;63.90;;;;;;5058521;28;43465;-71
2023/03/18 12:31:55;;;;;;;5.23;2.57;;;18.00;64.30;;;;;;5059849;28;44971;-71
2023/03/18 12:34:33;;;;;;;6.43;2.53;;;18.00;63.60;;;;;;5058036;28;44780;-72
2023/03/18 12:37:11;;;;;;;3.47;2.10;;;18.00;63.70;;;;;;5059048;28;43577;-72
2023/03/18 12:39:57;;;;;;;4.57;2.20;;;18.00;64.00;;;;;;5054883;28;43620;-72
2023/03/18 12:42:36;;;;;;;3.60;2.07;;;18.00;63.90;;;;;;5054725;28;43936;-71
2023/03/18 12:45:09;;;;;;;5.40;2.43;;;18.00;64.00;;;;;;5059472;28;43990;-72
2023/03/18 12:47:39;;;;;;;4.27;2.23;;;17.90;64.10;;;;;;5060402;28;43390;-72
2023/03/18 12:50:13;;;;;;;2.50;2.10;;;17.90;64.30;;;;;;5056120;28;43415;-72
2023/03/18 12:52:43;;;;;;;6.93;2.37;;;17.90;64.50;;;;;;5059542;28;44337;-73
2023/03/18 12:55:14;;;;;;;5.67;2.40;;;17.90;65.30;;;;;;5051054;28;43434;-72
2023/03/18 12:57:46;;;;;;;3.67;1.90;;;17.90;64.60;;;;;;5061647;28;43395;-72
2023/03/18 13:00:26;;;;;;;2.40;2.20;;;17.90;64.80;;;;;;5060400;28;43406;-72
2023/03/18 13:03:04;;;;;;;2.93;1.90;;;17.90;64.90;;;;;;5053546;28;45975;-72
2023/03/18 13:05:41;;;;;;;2.73;1.97;;;17.90;65.10;;;;;;5065117;28;44999;-71